createdAt,value
2019-02-05T00:00:45.310Z,64.58
2019-02-05T00:03:15.805Z,84.77
2019-02-05T00:05:44.548Z,86.95
2019-02-05T00:08:13.249Z,95.47
2019-02-05T00:10:41.990Z,101.87
2019-02-05T00:13:10.802Z,88.00
2019-02-05T00:15:39.536Z,90.77
2019-02-05T00:18:08.208Z,117.03
2019-02-05T00:20:56.313Z,126.40
2019-02-05T00:23:25.198Z,113.30
2019-02-05T00:26:05.647Z,150.40
2019-02-05T00:28:24.356Z,114.05
2019-02-05T00:30:54.131Z,163.60
2019-02-05T00:33:22.801Z,144.57
2019-02-05T00:35:51.477Z,95.12
2019-02-05T00:38:39.438Z,113.15
2019-02-05T00:41:08.085Z,114.17
2019-02-05T00:43:36.672Z,100.55
2019-02-05T00:46:05.349Z,85.32
2019-02-05T00:48:34.010Z,106.90
2019-02-05T00:51:02.749Z,93.78
2019-02-05T00:53:31.331Z,109.35
2019-02-05T00:56:00.205Z,89.40
2019-02-05T00:58:28.990Z,75.00
2019-02-05T01:00:57.852Z,72.87
2019-02-05T01:03:26.505Z,73.67
2019-02-05T01:05:55.304Z,87.12
2019-02-05T01:08:24.142Z,73.15
2019-02-05T01:10:52.856Z,88.25
2019-02-05T01:13:21.738Z,70.15
2019-02-05T01:15:50.450Z,77.50
2019-02-05T01:18:19.097Z,90.47
2019-02-05T01:20:53.808Z,73.60
2019-02-05T01:23:23.758Z,84.22
2019-02-05T01:25:52.568Z,79.17
2019-02-05T01:28:21.166Z,80.77
2019-02-05T01:30:49.767Z,77.60
2019-02-05T01:33:18.392Z,100.00
2019-02-05T01:35:47.485Z,86.70
2019-02-05T01:38:16.343Z,76.60
2019-02-05T01:40:46.664Z,94.75
2019-02-05T01:43:17.837Z,87.22
2019-02-05T01:45:46.522Z,81.28
2019-02-05T01:52:27.376Z,89.15
2019-02-05T02:18:31.811Z,88.67
2019-02-05T02:21:51.302Z,98.55
2019-02-05T02:41:16.220Z,97.15
2019-02-05T02:43:44.966Z,92.15
2019-02-05T02:46:13.657Z,111.85
2019-02-05T02:48:42.392Z,97.67
2019-02-05T02:51:11.058Z,108.85
2019-02-05T02:53:39.692Z,106.07
2019-02-05T02:56:08.543Z,102.45
2019-02-05T02:58:37.341Z,103.47
2019-02-05T03:01:06.056Z,122.85
2019-02-05T03:03:34.739Z,103.30
2019-02-05T03:06:03.587Z,109.40
2019-02-05T03:08:32.299Z,118.20
2019-02-05T03:11:00.858Z,116.90
2019-02-05T03:13:32.657Z,99.28
2019-02-05T03:16:03.027Z,135.50
2019-02-05T03:18:35.007Z,133.60
2019-02-05T03:21:05.068Z,126.70
2019-02-05T03:23:33.867Z,125.97
2019-02-05T03:26:02.611Z,112.90
2019-02-05T03:28:31.377Z,122.07
2019-02-05T03:31:00.521Z,138.97
2019-02-05T03:33:29.288Z,114.47
2019-02-05T03:35:57.939Z,102.95
2019-02-05T03:38:26.762Z,126.82
2019-02-05T03:41:04.516Z,107.03
2019-02-05T03:43:33.564Z,113.42
2019-02-05T03:46:04.664Z,91.40
2019-02-05T03:48:40.905Z,84.05
2019-02-05T03:51:12.355Z,96.40
2019-02-05T03:54:09.846Z,91.02
2019-02-05T03:57:00.417Z,92.70
2019-02-05T04:00:06.658Z,81.05
2019-02-05T04:02:58.535Z,89.40
2019-02-05T04:05:48.169Z,97.35
2019-02-05T04:08:53.446Z,103.10
2019-02-05T04:15:10.292Z,73.75
2019-02-05T04:18:06.866Z,80.20
2019-02-05T04:21:27.720Z,86.28
2019-02-05T04:24:26.652Z,104.45
2019-02-05T04:28:27.160Z,87.67
2019-02-05T04:30:22.885Z,110.72
2019-02-05T04:32:57.273Z,106.00
2019-02-05T04:35:31.730Z,110.50
2019-02-05T04:38:27.473Z,103.85
2019-02-05T04:41:47.246Z,105.95
2019-02-05T04:44:51.787Z,115.85
2019-02-05T04:50:38.814Z,90.17
2019-02-05T04:53:13.054Z,90.90
2019-02-05T04:56:05.342Z,96.85
2019-02-05T04:58:49.335Z,109.05
2019-02-05T05:01:29.739Z,117.40
2019-02-05T05:04:25.404Z,114.50
2019-02-05T05:07:33.245Z,114.42
2019-02-05T05:10:03.072Z,125.20
2019-02-05T05:12:31.914Z,121.30
2019-02-05T05:15:00.772Z,137.82
2019-02-05T05:26:35.275Z,113.12
2019-02-05T05:29:41.975Z,129.57
2019-02-05T05:32:06.635Z,123.60
2019-02-05T05:34:35.476Z,134.50
2019-02-05T05:37:03.109Z,118.87
2019-02-05T05:39:31.783Z,134.90
2019-02-05T05:42:00.679Z,128.78
2019-02-05T05:44:31.030Z,108.60
2019-02-05T05:46:59.990Z,114.70
2019-02-05T05:49:28.773Z,137.77
2019-02-05T05:51:57.653Z,105.55
2019-02-05T05:54:26.461Z,114.97
2019-02-05T05:56:59.407Z,136.20
2019-02-05T05:59:31.038Z,109.57
2019-02-05T06:05:17.145Z,126.53
2019-02-05T06:07:59.067Z,122.65
2019-02-05T06:10:35.487Z,112.52
2019-02-05T06:16:25.226Z,101.20
2019-02-05T06:19:04.649Z,102.47
2019-02-05T06:21:35.349Z,111.15
2019-02-05T06:24:14.762Z,122.35
2019-02-05T06:26:50.455Z,110.37
2019-02-05T06:29:19.148Z,109.87
2019-02-05T06:31:47.961Z,111.83
2019-02-05T06:34:16.763Z,101.67
2019-02-05T06:36:45.682Z,119.95
2019-02-05T06:39:14.617Z,121.70
2019-02-05T06:41:43.504Z,105.40
2019-02-05T06:44:12.232Z,118.93
2019-02-05T06:46:41.041Z,120.17
2019-02-05T06:49:09.855Z,110.55
2019-02-05T06:51:38.723Z,121.50
2019-02-05T06:54:07.508Z,103.62
2019-02-05T06:56:36.348Z,118.30
2019-02-05T06:59:05.367Z,112.12
2019-02-05T07:01:35.099Z,114.35
2019-02-05T07:04:04.439Z,111.08
2019-02-05T07:06:33.307Z,111.32
2019-02-05T07:09:02.440Z,104.70
2019-02-05T07:11:31.275Z,102.82
2019-02-05T07:14:00.114Z,114.88
2019-02-05T07:16:28.912Z,111.75
2019-02-05T07:18:57.624Z,134.43
2019-02-05T07:21:26.564Z,122.60
2019-02-05T07:23:55.395Z,129.03
2019-02-05T07:26:24.506Z,102.60
2019-02-05T07:29:00.016Z,131.53
2019-02-05T07:31:23.866Z,149.02
2019-02-05T07:33:52.707Z,128.97
2019-02-05T07:36:21.402Z,141.28
2019-02-05T07:42:04.991Z,129.17
2019-02-05T07:47:33.701Z,139.47
2019-02-05T07:50:02.601Z,141.15
2019-02-05T07:52:35.502Z,126.27
2019-02-05T07:55:05.569Z,121.90
2019-02-05T07:57:34.352Z,123.83
2019-02-05T08:00:05.046Z,113.77
2019-02-05T08:02:33.804Z,108.67
2019-02-05T08:05:02.635Z,109.60
2019-02-05T08:16:38.917Z,102.10
2019-02-05T08:19:08.466Z,68.43
2019-02-05T08:21:44.905Z,99.20
2019-02-05T08:24:09.318Z,67.17
2019-02-05T08:26:48.741Z,73.80
2019-02-05T08:29:29.462Z,79.03
2019-02-05T08:32:00.321Z,94.00
2019-02-05T08:34:29.313Z,93.50
2019-02-05T08:37:02.919Z,96.60
2019-02-05T08:39:31.799Z,120.23
2019-02-05T08:42:00.663Z,74.77
2019-02-05T08:44:29.555Z,93.00
2019-02-05T08:50:23.374Z,99.77
2019-02-05T08:55:54.375Z,93.67
2019-02-05T08:58:30.627Z,82.07
2019-02-05T09:01:25.074Z,81.10
2019-02-05T09:03:41.085Z,107.33
2019-02-05T09:06:09.800Z,106.07
2019-02-05T09:08:38.657Z,91.37
2019-02-05T09:11:07.519Z,120.70
2019-02-05T09:13:36.301Z,106.90
2019-02-05T09:16:05.085Z,116.27
2019-02-05T09:18:33.688Z,107.77
2019-02-05T09:21:02.529Z,96.07
2019-02-05T09:23:31.308Z,91.17
2019-02-05T09:26:00.112Z,93.53
2019-02-05T09:28:28.952Z,88.47
2019-02-05T09:30:57.792Z,81.80
2019-02-05T09:33:26.593Z,64.57
2019-02-05T09:35:55.223Z,85.47
2019-02-05T09:38:24.024Z,83.43
2019-02-05T09:40:52.897Z,87.40
2019-02-05T09:43:23.813Z,75.20
2019-02-05T09:45:52.453Z,77.13
2019-02-05T09:48:21.256Z,64.27
2019-02-05T09:50:49.986Z,65.40
2019-02-05T09:53:18.753Z,64.07
2019-02-05T09:55:47.567Z,66.67
2019-02-05T09:58:18.006Z,60.20
2019-02-05T10:00:48.480Z,65.50
2019-02-05T10:03:17.281Z,61.40
2019-02-05T10:05:46.100Z,80.80
2019-02-05T10:08:14.801Z,68.40
2019-02-05T10:10:43.630Z,68.80
2019-02-05T10:13:15.775Z,62.83
2019-02-05T10:15:47.804Z,120.13
2019-02-05T10:18:18.161Z,58.47
2019-02-05T10:20:49.666Z,73.80
2019-02-05T10:23:20.587Z,55.23
2019-02-05T10:25:52.715Z,60.37
2019-02-05T10:28:21.626Z,55.93
2019-02-05T10:30:50.505Z,52.80
2019-02-05T10:33:19.367Z,53.20
2019-02-05T10:35:48.275Z,46.17
2019-02-05T10:38:17.378Z,48.10
2019-02-05T10:40:47.322Z,54.23
2019-02-05T10:43:16.209Z,54.53
2019-02-05T10:45:45.419Z,51.23
2019-02-05T10:48:14.300Z,47.30
2019-02-05T10:50:51.347Z,51.13
2019-02-05T10:53:22.892Z,53.60
2019-02-05T10:55:57.061Z,35.40
2019-02-05T10:58:25.502Z,49.27
2019-02-05T11:00:54.273Z,51.57
2019-02-05T11:03:23.106Z,47.83
2019-02-05T11:05:51.934Z,53.17
2019-02-05T11:08:20.575Z,50.53
2019-02-05T11:11:10.562Z,45.37
2019-02-05T11:13:39.437Z,52.90
2019-02-05T11:16:08.081Z,52.30
2019-02-05T11:18:36.859Z,61.20
2019-02-05T11:21:05.575Z,40.23
2019-02-05T11:23:34.311Z,48.80
2019-02-05T11:26:03.105Z,46.53
2019-02-05T11:28:31.753Z,51.33
2019-02-05T11:31:00.368Z,59.67
2019-02-05T11:33:29.101Z,60.83
2019-02-05T11:35:57.793Z,57.97
2019-02-05T11:38:26.533Z,66.97
2019-02-05T11:41:02.644Z,59.80
2019-02-05T11:43:28.638Z,64.10
2019-02-05T11:45:57.784Z,58.83
2019-02-05T11:48:26.541Z,61.03
2019-02-05T11:50:55.181Z,59.10
2019-02-05T11:53:23.927Z,57.50
2019-02-05T11:55:52.602Z,60.97
2019-02-05T11:58:21.183Z,53.80
2019-02-05T12:00:58.433Z,55.10
2019-02-05T12:03:27.197Z,52.40
2019-02-05T12:05:55.929Z,48.90
2019-02-05T12:08:24.682Z,57.83
2019-02-05T12:10:53.353Z,58.03
2019-02-05T12:13:40.322Z,58.00
2019-02-05T12:16:12.274Z,61.30
2019-02-05T12:18:48.440Z,88.33
2019-02-05T12:21:19.982Z,46.17
2019-02-05T12:23:48.781Z,57.20
2019-02-05T12:26:19.357Z,58.57
2019-02-05T12:28:48.591Z,56.47
2019-02-05T12:31:17.499Z,49.17
2019-02-05T12:33:46.505Z,62.83
2019-02-05T12:36:21.135Z,53.30
2019-02-05T12:39:02.050Z,46.83
2019-02-05T12:41:31.202Z,53.87
2019-02-05T12:44:00.024Z,54.80
2019-02-05T12:46:28.714Z,59.83
2019-02-05T12:48:57.553Z,50.87
2019-02-05T12:51:26.304Z,53.20
2019-02-05T12:53:57.463Z,56.63
2019-02-05T12:56:26.326Z,57.83
2019-02-05T12:58:55.107Z,56.80
2019-02-05T13:01:23.864Z,53.47
2019-02-05T13:03:52.726Z,56.43
2019-02-05T13:06:21.660Z,65.30
2019-02-05T13:08:50.353Z,55.70
2019-02-05T13:11:19.296Z,61.40
2019-02-05T13:13:48.572Z,62.17
2019-02-05T13:16:17.279Z,57.93
2019-02-05T13:18:46.133Z,61.27
2019-02-05T13:21:14.785Z,58.53
2019-02-05T13:23:43.399Z,56.90
2019-02-05T13:26:12.704Z,61.07
2019-02-05T13:28:41.802Z,58.47
2019-02-05T13:31:10.605Z,55.60
2019-02-05T13:33:39.394Z,64.50
2019-02-05T13:36:10.038Z,65.00
2019-02-05T13:38:38.906Z,66.30
2019-02-05T13:41:07.644Z,75.80
2019-02-05T13:43:36.804Z,75.53
2019-02-05T13:46:06.240Z,81.87
2019-02-05T13:48:34.932Z,49.83
2019-02-05T13:51:03.859Z,54.60
2019-02-05T13:53:32.779Z,69.80
2019-02-05T13:56:01.460Z,70.40
2019-02-05T13:58:30.717Z,58.83
2019-02-05T14:00:59.499Z,61.20
2019-02-05T14:03:28.322Z,61.03
2019-02-05T14:05:57.170Z,50.27
2019-02-05T14:08:25.893Z,76.97
2019-02-05T14:10:55.405Z,64.40
2019-02-05T14:13:26.711Z,78.00
2019-02-05T14:15:55.547Z,67.67
2019-02-05T14:18:24.304Z,70.40
2019-02-05T14:20:53.014Z,64.33
2019-02-05T14:23:27.275Z,70.97
2019-02-05T14:25:56.525Z,78.03
2019-02-05T14:28:31.139Z,65.00
2019-02-05T14:31:02.950Z,53.27
2019-02-05T14:33:33.248Z,66.90
2019-02-05T14:36:02.017Z,54.27
2019-02-05T14:38:30.796Z,50.57
2019-02-05T14:41:02.259Z,61.30
2019-02-05T14:43:33.930Z,57.83
2019-02-05T14:46:03.862Z,66.90
2019-02-05T14:48:41.920Z,66.13
2019-02-05T14:51:11.971Z,61.80
2019-02-05T14:53:43.870Z,69.10
2019-02-05T14:56:12.803Z,68.37
2019-02-05T14:58:41.612Z,71.13
2019-02-05T15:01:10.617Z,71.37
2019-02-05T15:03:39.441Z,78.47
2019-02-05T15:06:08.237Z,65.27
2019-02-05T15:08:37.477Z,69.63
2019-02-05T15:11:09.316Z,67.13
2019-02-05T15:13:38.725Z,65.50
2019-02-05T15:16:07.756Z,63.23
2019-02-05T15:18:36.578Z,69.57
2019-02-05T15:21:05.417Z,71.17
2019-02-05T15:23:34.659Z,61.70
2019-02-05T15:26:07.758Z,58.77
2019-02-05T15:28:36.860Z,67.87
2019-02-05T15:31:08.310Z,66.77
2019-02-05T15:33:45.871Z,71.33
2019-02-05T15:36:16.364Z,69.87
2019-02-05T15:38:48.352Z,86.03
2019-02-05T15:41:21.833Z,70.13
2019-02-05T15:46:58.403Z,81.50
2019-02-05T15:50:05.774Z,70.20
2019-02-05T15:52:14.688Z,92.00
2019-02-05T15:54:42.784Z,80.77
2019-02-05T15:57:11.549Z,72.07
2019-02-05T15:59:40.549Z,93.73
2019-02-05T16:02:09.535Z,82.20
2019-02-05T16:04:38.351Z,112.90
2019-02-05T16:07:07.113Z,83.70
2019-02-05T16:09:35.989Z,67.03
2019-02-05T16:12:05.111Z,73.57
2019-02-05T16:14:33.904Z,64.33
2019-02-05T16:17:02.813Z,71.50
2019-02-05T16:19:31.642Z,72.10
2019-02-05T16:22:00.501Z,80.47
2019-02-05T16:24:29.536Z,72.90
2019-02-05T16:26:58.332Z,74.43
2019-02-05T16:29:27.033Z,68.33
2019-02-05T16:31:55.853Z,72.30
2019-02-05T16:34:38.258Z,57.73
2019-02-05T16:37:04.867Z,55.73
2019-02-05T16:39:33.618Z,59.73
2019-02-05T16:42:02.406Z,64.87
2019-02-05T16:44:31.256Z,66.43
2019-02-05T16:47:00.041Z,78.73
2019-02-05T16:49:29.002Z,67.57
2019-02-05T16:51:57.830Z,71.40
2019-02-05T16:54:26.615Z,71.10
2019-02-05T16:56:55.442Z,72.73
2019-02-05T16:59:24.301Z,93.73
2019-02-05T17:01:53.100Z,85.73
2019-02-05T17:04:21.893Z,68.77
2019-02-05T17:06:50.742Z,64.60
2019-02-05T17:09:19.966Z,78.60
2019-02-05T17:11:48.869Z,67.37
2019-02-05T17:14:17.773Z,67.20
2019-02-05T17:16:47.166Z,84.53
2019-02-05T17:19:16.028Z,72.80
2019-02-05T17:21:44.817Z,71.43
2019-02-05T17:24:14.266Z,71.00
2019-02-05T17:26:43.090Z,78.13
2019-02-05T17:29:11.738Z,81.13
2019-02-05T17:31:40.737Z,76.13
2019-02-05T17:34:09.464Z,84.57
2019-02-05T17:36:38.341Z,73.93
2019-02-05T17:39:10.639Z,78.70
2019-02-05T17:41:39.403Z,76.23
2019-02-05T17:44:08.304Z,79.63
2019-02-05T17:46:36.976Z,74.80
2019-02-05T17:49:05.817Z,77.63
2019-02-05T17:51:34.472Z,73.77
2019-02-05T17:54:03.364Z,67.03
2019-02-05T17:56:31.941Z,72.93
2019-02-05T17:59:00.635Z,68.00
2019-02-05T18:01:29.363Z,71.47
2019-02-05T18:03:58.059Z,78.53
2019-02-05T18:06:26.721Z,72.53
2019-02-05T18:08:55.555Z,80.57
2019-02-05T18:11:24.584Z,78.50
2019-02-05T18:13:53.261Z,72.90
2019-02-05T18:16:22.131Z,66.03
2019-02-05T18:18:50.883Z,62.07
2019-02-05T18:21:19.488Z,71.73
2019-02-05T18:23:48.388Z,76.67
2019-02-05T18:26:17.535Z,69.23
2019-02-05T18:28:46.460Z,59.93
2019-02-05T18:31:15.227Z,62.40
2019-02-05T18:33:44.125Z,56.07
2019-02-05T18:36:12.882Z,59.63
2019-02-05T18:38:41.680Z,55.83
2019-02-05T18:41:10.371Z,55.53
2019-02-05T18:43:39.228Z,66.17
2019-02-05T18:46:08.151Z,60.37
2019-02-05T18:48:36.926Z,53.40
2019-02-05T18:51:05.949Z,54.97
2019-02-05T18:53:34.899Z,56.77
2019-02-05T18:56:04.730Z,63.20
2019-02-05T18:58:33.770Z,54.80
2019-02-05T19:01:02.687Z,62.30
2019-02-05T19:03:31.673Z,72.37
2019-02-05T19:06:00.847Z,63.83
2019-02-05T19:08:29.832Z,70.37
2019-02-05T19:10:58.940Z,85.30
2019-02-05T19:13:28.303Z,88.53
2019-02-05T19:15:57.342Z,89.80
2019-02-05T19:18:26.554Z,90.17
2019-02-05T19:20:55.460Z,82.33
2019-02-05T19:23:24.485Z,88.45
2019-02-05T19:26:04.147Z,83.47
2019-02-05T19:28:33.636Z,70.40
2019-02-05T19:31:04.129Z,86.27
2019-02-05T19:33:33.432Z,93.53
2019-02-05T19:36:02.295Z,105.80
2019-02-05T19:38:31.249Z,92.77
2019-02-05T19:41:00.804Z,86.93
2019-02-05T19:43:29.817Z,100.07
2019-02-05T19:46:06.306Z,104.07
2019-02-05T19:48:42.106Z,102.27
2019-02-05T19:51:11.492Z,114.05
2019-02-05T19:53:40.266Z,107.85
2019-02-05T19:56:09.439Z,158.55
2019-02-05T19:58:39.003Z,99.30
2019-02-05T20:01:08.055Z,92.17
2019-02-05T20:03:38.936Z,112.13
2019-02-05T20:06:07.371Z,92.80
2019-02-05T20:08:36.294Z,92.40
2019-02-05T20:11:08.362Z,100.27
2019-02-05T20:13:40.334Z,96.87
2019-02-05T20:16:08.292Z,99.97
2019-02-05T20:18:37.548Z,94.93
2019-02-05T20:21:14.023Z,93.47
2019-02-05T20:23:43.058Z,96.60
2019-02-05T20:26:12.250Z,101.60
2019-02-05T20:28:41.506Z,104.30
2019-02-05T20:31:10.664Z,103.00
2019-02-05T20:33:49.707Z,108.07
2019-02-05T20:36:10.169Z,80.47
2019-02-05T20:38:39.288Z,108.52
2019-02-05T20:41:08.562Z,110.48
2019-02-05T20:43:38.082Z,95.35
2019-02-05T20:46:07.186Z,95.30
2019-02-05T20:48:36.199Z,95.03
2019-02-05T20:51:05.618Z,118.57
2019-02-05T20:53:34.623Z,139.07
2019-02-05T20:56:03.528Z,172.02
2019-02-05T20:58:32.395Z,102.72
2019-02-05T21:01:01.478Z,103.80
2019-02-05T21:03:30.395Z,125.10
2019-02-05T21:05:59.155Z,113.20
2019-02-05T21:08:28.427Z,141.03
2019-02-05T21:10:57.110Z,128.85
2019-02-05T21:13:25.918Z,131.80
2019-02-05T21:15:54.704Z,119.35
2019-02-05T21:18:24.641Z,133.32
2019-02-05T21:20:53.328Z,122.95
2019-02-05T21:23:22.216Z,119.10
2019-02-05T21:25:51.033Z,125.75
2019-02-05T21:28:19.860Z,116.40
2019-02-05T21:30:48.514Z,116.70
2019-02-05T21:33:19.038Z,121.90
2019-02-05T21:35:47.795Z,109.57
2019-02-05T21:38:16.963Z,126.95
2019-02-05T21:40:45.565Z,112.03
2019-02-05T21:43:14.678Z,119.80
2019-02-05T21:45:43.264Z,124.20
2019-02-05T21:48:14.955Z,113.03
2019-02-05T21:50:44.731Z,139.00
2019-02-05T21:53:13.404Z,126.90
2019-02-05T21:55:42.662Z,128.12
2019-02-05T21:58:12.551Z,128.53
2019-02-05T22:00:44.506Z,139.68
2019-02-05T22:03:13.183Z,134.03
2019-02-05T22:05:42.673Z,123.87
2019-02-05T22:08:11.437Z,133.50
2019-02-05T22:10:40.540Z,133.27
2019-02-05T22:13:09.897Z,149.02
2019-02-05T22:15:42.387Z,106.22
2019-02-05T22:18:11.677Z,114.90
2019-02-05T22:20:41.176Z,112.45
2019-02-05T22:23:10.274Z,131.13
2019-02-05T22:25:40.487Z,112.15
2019-02-05T22:28:09.660Z,130.72
2019-02-05T22:30:39.528Z,132.63
2019-02-05T22:33:11.369Z,120.45
2019-02-05T22:35:40.767Z,138.40
2019-02-05T22:38:09.958Z,132.50
2019-02-05T22:40:44.745Z,128.47
2019-02-05T22:43:14.096Z,127.37
2019-02-05T22:45:43.667Z,111.00
2019-02-05T22:48:12.352Z,109.05
2019-02-05T22:50:44.058Z,130.00
2019-02-05T22:53:33.768Z,122.00
2019-02-05T22:56:04.851Z,122.05
2019-02-05T22:58:33.581Z,147.17
2019-02-05T23:01:24.703Z,139.80
2019-02-05T23:03:56.509Z,133.57
2019-02-05T23:06:32.021Z,124.18
2019-02-05T23:09:16.258Z,130.00
2019-02-05T23:12:16.079Z,118.43
2019-02-05T23:14:51.826Z,139.80
2019-02-05T23:17:21.289Z,117.10
2019-02-05T23:19:50.656Z,91.35
2019-02-05T23:22:21.385Z,122.37
2019-02-05T23:24:50.140Z,131.30
2019-02-05T23:27:18.826Z,113.57
2019-02-05T23:29:47.556Z,128.12
2019-02-05T23:32:16.247Z,142.80
2019-02-05T23:34:44.992Z,131.85
2019-02-05T23:37:16.186Z,131.45
2019-02-05T23:39:44.778Z,144.20
2019-02-05T23:42:13.388Z,115.57
2019-02-05T23:44:42.171Z,93.55
2019-02-05T23:47:10.856Z,130.95
2019-02-05T23:49:39.521Z,106.43
2019-02-05T23:52:08.247Z,116.67
2019-02-05T23:54:36.909Z,124.80
2019-02-05T23:57:05.659Z,121.02
2019-02-05T23:59:34.265Z,131.57
